Time;durP1;ratioP1;P1;durP2;ratioP2;P2;SDS_P1;SDS_P2;PMS_P1;PMS_P2;Temp;Humidity;BMP_temperature;BMP_pressure;BME280_temperature;BME280_humidity;BME280_pressure;Samples;Min_cycle;Max_cycle;Signal;HPM_P1;HPM_P2
2023/09/24 00:02:25;;;;;;;20.08;17.90;;;12.80;99.90;;;;;;4980409;28;20043;-82
2023/09/24 00:04:52;;;;;;;20.75;16.88;;;12.80;99.90;;;;;;4990852;28;20054;-82
2023/09/24 00:07:20;;;;;;;22.40;18.30;;;12.80;99.90;;;;;;4988950;28;20073;-82
2023/09/24 00:09:47;;;;;;;27.08;18.77;;;12.80;99.90;;;;;;4984150;28;20161;-81
2023/09/24 00:12:14;;;;;;;19.77;17.77;;;12.80;99.90;;;;;;4975482;28;20081;-82
2023/09/24 00:14:41;;;;;;;20.15;17.58;;;12.80;99.90;;;;;;4980122;28;20046;-82
2023/09/24 00:17:09;;;;;;;21.40;18.27;;;12.80;99.90;;;;;;4994605;28;20046;-82
2023/09/24 00:19:36;;;;;;;22.08;18.23;;;12.80;99.90;;;;;;4974203;28;20050;-82
2023/09/24 00:22:04;;;;;;;20.95;17.95;;;12.90;99.90;;;;;;4978290;28;20065;-82
2023/09/24 00:24:31;;;;;;;20.33;17.23;;;12.90;99.90;;;;;;4981684;28;20050;-82
2023/09/24 00:26:57;;;;;;;25.65;18.17;;;12.80;99.90;;;;;;4985813;28;20070;-82
2023/09/24 00:29:24;;;;;;;23.95;18.92;;;12.80;99.90;;;;;;4978491;28;20156;-82
2023/09/24 00:31:51;;;;;;;22.13;17.95;;;12.80;99.90;;;;;;4985046;28;20051;-82
2023/09/24 00:34:18;;;;;;;21.80;18.98;;;12.70;99.90;;;;;;4975690;28;20488;-82
2023/09/24 00:36:46;;;;;;;24.27;18.50;;;12.80;99.90;;;;;;4973571;28;20046;-81
2023/09/24 00:39:13;;;;;;;21.80;18.83;;;12.80;99.90;;;;;;4981112;28;20505;-82
2023/09/24 00:41:45;;;;;;;24.77;19.45;;;12.70;99.90;;;;;;4973055;28;20542;-82
2023/09/24 00:44:14;;;;;;;26.38;18.85;;;12.80;99.90;;;;;;4980802;28;20050;-81
2023/09/24 00:46:44;;;;;;;24.10;18.45;;;12.70;99.90;;;;;;4968192;28;20594;-82
2023/09/24 00:49:14;;;;;;;26.10;19.15;;;12.80;99.90;;;;;;4976921;28;20717;-82
2023/09/24 00:51:42;;;;;;;21.02;18.63;;;12.80;99.90;;;;;;4982969;28;20042;-82
2023/09/24 00:54:10;;;;;;;21.90;19.48;;;12.80;99.90;;;;;;4984166;28;20057;-82
2023/09/24 00:56:37;;;;;;;24.92;19.23;;;12.90;99.90;;;;;;4977047;28;20038;-81
2023/09/24 00:59:06;;;;;;;27.92;19.42;;;13.00;99.90;;;;;;4971026;28;20054;-82
2023/09/24 01:01:34;;;;;;;30.45;19.85;;;12.90;99.90;;;;;;4985890;28;20030;-82
2023/09/24 01:04:05;;;;;;;28.08;19.15;;;12.90;99.90;;;;;;4971773;28;20145;-81
2023/09/24 01:06:33;;;;;;;27.23;20.55;;;12.80;99.90;;;;;;4986799;28;20045;-82
2023/09/24 01:09:03;;;;;;;25.55;19.30;;;12.80;99.90;;;;;;4975509;28;20555;-82
2023/09/24 01:11:31;;;;;;;30.35;20.70;;;12.70;99.90;;;;;;4977159;28;20145;-82
2023/09/24 01:13:58;;;;;;;29.35;21.13;;;12.70;99.90;;;;;;4967058;28;20050;-81
2023/09/24 01:16:25;;;;;;;28.73;21.60;;;12.70;99.90;;;;;;4965079;28;20035;-82
2023/09/24 01:18:53;;;;;;;31.17;21.55;;;12.60;99.90;;;;;;4971032;28;20128;-81
2023/09/24 01:21:20;;;;;;;27.83;21.27;;;12.60;99.90;;;;;;4972215;28;20042;-81
2023/09/24 01:23:49;;;;;;;34.38;21.25;;;12.50;99.90;;;;;;4966167;28;20358;-82
2023/09/24 01:26:18;;;;;;;34.58;22.30;;;12.50;99.90;;;;;;4987678;28;20077;-82
2023/09/24 01:28:47;;;;;;;32.40;21.52;;;12.40;99.90;;;;;;4985162;28;20054;-82
2023/09/24 01:31:15;;;;;;;24.23;20.13;;;12.30;99.90;;;;;;4981254;28;20347;-82
2023/09/24 01:33:43;;;;;;;29.40;21.20;;;12.30;99.90;;;;;;4988692;28;20076;-82
2023/09/24 01:36:10;;;;;;;32.92;22.23;;;12.20;99.90;;;;;;4980390;28;20058;-83
2023/09/24 01:38:41;;;;;;;32.80;22.50;;;12.10;99.90;;;;;;4969695;28;20054;-82
2023/09/24 01:41:10;;;;;;;30.77;20.55;;;12.10;99.90;;;;;;4978429;28;20223;-83
2023/09/24 01:43:39;;;;;;;27.40;20.58;;;12.00;99.90;;;;;;4987938;28;20472;-81
2023/09/24 01:46:10;;;;;;;36.08;22.50;;;12.00;99.90;;;;;;4968620;28;20042;-82
2023/09/24 01:48:37;;;;;;;31.10;22.40;;;11.90;99.90;;;;;;4983161;28;20111;-82
2023/09/24 01:51:10;;;;;;;30.17;21.45;;;11.90;99.90;;;;;;4979407;28;20544;-82
2023/09/24 01:53:38;;;;;;;28.38;21.98;;;11.90;99.90;;;;;;4967832;28;20065;-82
2023/09/24 01:56:06;;;;;;;31.45;21.65;;;11.90;99.90;;;;;;4977219;28;20050;-82
2023/09/24 01:58:37;;;;;;;30.23;20.80;;;11.90;99.90;;;;;;4986127;28;20054;-82
2023/09/24 02:01:06;;;;;;;30.48;21.45;;;11.90;99.90;;;;;;4978600;28;20050;-81
2023/09/24 02:03:35;;;;;;;31.48;21.40;;;12.00;99.90;;;;;;4975939;28;20081;-82
2023/09/24 02:06:03;;;;;;;30.77;22.30;;;12.00;99.90;;;;;;4972942;28;20061;-82
2023/09/24 02:08:30;;;;;;;29.77;20.63;;;12.00;99.90;;;;;;4983006;28;20045;-83
2023/09/24 02:10:58;;;;;;;34.83;23.25;;;12.00;99.90;;;;;;4966588;28;20051;-82
2023/09/24 02:13:26;;;;;;;35.80;23.08;;;11.90;99.90;;;;;;4986089;28;20050;-82
2023/09/24 02:15:53;;;;;;;33.67;22.67;;;11.90;99.90;;;;;;4971783;28;20142;-83
2023/09/24 02:18:21;;;;;;;26.83;21.55;;;11.80;99.90;;;;;;4969434;28;20117;-82
2023/09/24 02:20:51;;;;;;;36.22;22.08;;;11.80;99.90;;;;;;4986771;28;20046;-82
2023/09/24 02:23:23;;;;;;;35.72;21.80;;;11.80;99.90;;;;;;4991566;28;20073;-82
2023/09/24 02:25:50;;;;;;;34.20;21.55;;;11.80;99.90;;;;;;4971035;28;20069;-82
2023/09/24 02:28:17;;;;;;;34.00;21.48;;;11.80;99.90;;;;;;4963748;28;20331;-82
2023/09/24 02:30:46;;;;;;;29.27;21.15;;;11.80;99.90;;;;;;4995118;28;20055;-82
2023/09/24 02:33:13;;;;;;;33.17;22.35;;;11.80;99.90;;;;;;4991225;28;21447;-82
2023/09/24 02:35:40;;;;;;;31.70;21.60;;;11.70;99.90;;;;;;4989611;28;20078;-83
2023/09/24 02:38:08;;;;;;;34.55;22.58;;;11.70;99.90;;;;;;4984475;28;20045;-83
2023/09/24 02:40:38;;;;;;;32.35;21.73;;;11.70;99.90;;;;;;4997868;28;20081;-80
2023/09/24 02:43:05;;;;;;;34.92;22.45;;;11.70;99.90;;;;;;4973919;28;20452;-82
2023/09/24 02:45:33;;;;;;;33.20;22.98;;;11.70;99.90;;;;;;4971401;28;20038;-81
2023/09/24 02:48:00;;;;;;;34.33;22.48;;;11.60;99.90;;;;;;4982856;28;20150;-82
2023/09/24 02:50:28;;;;;;;36.50;22.60;;;11.60;99.90;;;;;;5001655;28;20038;-82
2023/09/24 02:53:07;;;;;;;35.40;23.88;;;11.60;99.90;;;;;;4982492;28;20046;-82
2023/09/24 02:55:36;;;;;;;35.97;23.02;;;11.60;99.90;;;;;;4973252;28;20085;-82
2023/09/24 02:58:06;;;;;;;54.03;23.05;;;11.50;99.90;;;;;;4994222;28;20050;-82
2023/09/24 03:00:35;;;;;;;35.20;21.98;;;11.50;99.90;;;;;;5002262;28;20058;-82
2023/09/24 03:03:05;;;;;;;44.00;24.77;;;11.50;99.90;;;;;;4985168;28;20061;-82
2023/09/24 03:05:33;;;;;;;43.45;24.13;;;11.50;99.90;;;;;;4999686;28;20121;-82
2023/09/24 03:08:02;;;;;;;33.88;21.67;;;11.40;99.90;;;;;;4999029;28;20046;-81
2023/09/24 03:10:33;;;;;;;44.58;23.35;;;11.40;99.90;;;;;;5000166;28;20065;-81
2023/09/24 03:13:02;;;;;;;40.60;24.60;;;11.30;99.90;;;;;;4997107;28;20085;-82
2023/09/24 03:15:29;;;;;;;39.97;24.88;;;11.30;99.90;;;;;;5003411;28;20054;-82
2023/09/24 03:17:56;;;;;;;37.70;23.35;;;11.30;99.90;;;;;;4991311;28;20046;-81
2023/09/24 03:20:24;;;;;;;43.05;26.13;;;11.20;99.90;;;;;;4994111;28;20105;-81
2023/09/24 03:22:54;;;;;;;42.60;26.85;;;11.20;99.90;;;;;;5017496;28;20086;-81
2023/09/24 03:25:24;;;;;;;41.00;24.73;;;11.20;99.90;;;;;;4999552;28;20443;-81
2023/09/24 03:28:02;;;;;;;42.28;25.88;;;11.30;99.90;;;;;;4991871;28;20073;-82
2023/09/24 03:30:29;;;;;;;44.38;25.77;;;11.20;99.90;;;;;;4986631;28;20061;-79
2023/09/24 03:32:58;;;;;;;51.40;25.88;;;11.20;99.90;;;;;;4994117;28;20133;-80
2023/09/24 03:35:26;;;;;;;43.25;25.50;;;11.10;99.90;;;;;;4977615;28;20050;-81
2023/09/24 03:37:55;;;;;;;51.65;25.23;;;11.20;99.90;;;;;;4988394;28;20573;-81
2023/09/24 03:40:27;;;;;;;42.78;27.15;;;11.20;99.90;;;;;;4996282;28;20046;-81
2023/09/24 03:42:55;;;;;;;39.17;25.35;;;11.20;99.90;;;;;;4977375;28;20050;-81
2023/09/24 03:45:23;;;;;;;38.30;25.15;;;11.20;99.90;;;;;;4973918;28;20042;-82
2023/09/24 03:47:52;;;;;;;43.35;25.15;;;11.20;99.90;;;;;;4991388;28;20133;-81
2023/09/24 03:50:19;;;;;;;45.30;24.77;;;11.30;99.90;;;;;;5004093;28;20928;-81
2023/09/24 03:52:48;;;;;;;42.40;25.67;;;11.30;99.90;;;;;;4992152;28;20078;-81
2023/09/24 03:55:16;;;;;;;43.28;25.77;;;11.30;99.90;;;;;;4977566;28;20113;-81
2023/09/24 03:57:43;;;;;;;40.03;25.63;;;11.30;99.90;;;;;;4988071;28;20045;-81
2023/09/24 04:00:11;;;;;;;40.83;24.73;;;11.30;99.90;;;;;;4987888;28;20474;-81
2023/09/24 04:02:41;;;;;;;41.65;25.77;;;11.30;99.90;;;;;;5020946;28;20043;-81
2023/09/24 04:05:14;;;;;;;43.95;25.55;;;11.20;99.90;;;;;;4985045;28;20078;-80
2023/09/24 04:07:54;;;;;;;42.00;25.35;;;11.10;99.90;;;;;;5005179;28;20066;-83
2023/09/24 04:10:24;;;;;;;42.50;26.63;;;11.10;99.90;;;;;;4971595;28;20050;-83
2023/09/24 04:12:51;;;;;;;46.10;26.77;;;11.10;99.90;;;;;;4979191;28;20046;-84
2023/09/24 04:15:21;;;;;;;43.05;26.30;;;11.00;99.90;;;;;;4996961;28;20075;-83
2023/09/24 04:17:49;;;;;;;51.92;27.75;;;10.90;99.90;;;;;;4989789;28;20154;-84
2023/09/24 04:20:20;;;;;;;42.95;26.42;;;10.90;99.90;;;;;;4986704;28;20034;-84
2023/09/24 04:22:50;;;;;;;47.75;27.83;;;10.90;99.90;;;;;;5002165;28;20058;-83
2023/09/24 04:25:21;;;;;;;49.35;28.10;;;10.80;99.90;;;;;;4989814;28;20030;-84
2023/09/24 04:27:51;;;;;;;54.97;29.88;;;10.70;99.90;;;;;;5007315;28;20070;-83
2023/09/24 04:30:19;;;;;;;52.67;30.50;;;10.70;99.90;;;;;;4990650;28;20037;-82
2023/09/24 04:32:51;;;;;;;48.63;28.70;;;10.70;99.90;;;;;;4991006;28;20045;-81
2023/09/24 04:35:19;;;;;;;51.55;29.55;;;10.60;99.90;;;;;;5012162;28;20263;-81
2023/09/24 04:37:47;;;;;;;58.58;29.15;;;10.60;99.90;;;;;;4994287;28;20029;-82
2023/09/24 04:40:14;;;;;;;53.15;28.90;;;10.60;99.90;;;;;;4997373;28;20053;-82
2023/09/24 04:42:45;;;;;;;47.40;28.83;;;10.60;99.90;;;;;;5006574;28;20589;-81
2023/09/24 04:45:14;;;;;;;54.28;30.10;;;10.50;99.90;;;;;;4983970;28;20062;-81
2023/09/24 04:47:42;;;;;;;54.15;30.73;;;10.40;99.90;;;;;;5001811;28;20053;-80
2023/09/24 04:50:12;;;;;;;47.22;28.20;;;10.40;99.90;;;;;;4985021;28;20038;-80
2023/09/24 04:52:44;;;;;;;58.58;28.65;;;10.40;99.90;;;;;;4964875;28;20047;-83
2023/09/24 04:55:13;;;;;;;58.60;29.45;;;10.30;99.90;;;;;;4979588;28;20050;-82
2023/09/24 04:57:40;;;;;;;49.85;28.40;;;10.30;99.90;;;;;;4988014;28;20763;-82
2023/09/24 05:00:07;;;;;;;56.05;31.40;;;10.30;99.90;;;;;;4964011;28;20052;-83
2023/09/24 05:02:34;;;;;;;58.65;28.45;;;10.30;99.90;;;;;;4998082;28;20034;-82
2023/09/24 05:05:01;;;;;;;56.67;29.48;;;10.30;99.90;;;;;;4985740;28;20105;-83
2023/09/24 05:07:28;;;;;;;58.65;30.52;;;10.20;99.90;;;;;;4980649;28;20046;-83
2023/09/24 05:09:56;;;;;;;61.50;30.60;;;10.20;99.90;;;;;;4971228;28;20116;-83
2023/09/24 05:12:23;;;;;;;52.92;29.52;;;10.20;99.90;;;;;;4999283;28;20104;-83
2023/09/24 05:14:50;;;;;;;52.40;30.88;;;10.20;99.90;;;;;;4985614;28;20045;-84
2023/09/24 05:17:17;;;;;;;58.38;30.52;;;10.20;99.90;;;;;;4980083;28;20567;-83
2023/09/24 05:19:44;;;;;;;53.17;30.52;;;10.20;99.90;;;;;;4988315;28;20046;-82
2023/09/24 05:22:11;;;;;;;59.88;30.67;;;10.20;99.90;;;;;;4981345;28;20539;-83
2023/09/24 05:24:38;;;;;;;63.58;29.60;;;10.20;99.90;;;;;;4983834;28;20042;-83
2023/09/24 05:27:05;;;;;;;55.95;30.13;;;10.20;99.90;;;;;;4981174;28;20093;-83
2023/09/24 05:29:32;;;;;;;58.50;29.92;;;10.20;99.90;;;;;;4987183;28;20089;-83
2023/09/24 05:32:00;;;;;;;56.65;29.30;;;10.10;99.90;;;;;;4985447;28;20097;-83
2023/09/24 05:34:28;;;;;;;61.65;30.20;;;10.10;99.90;;;;;;4983203;28;20109;-84
2023/09/24 05:36:54;;;;;;;52.47;29.13;;;10.10;99.90;;;;;;4970665;28;20509;-84
2023/09/24 05:39:21;;;;;;;53.08;28.77;;;10.10;99.90;;;;;;4987545;28;20053;-83
2023/09/24 05:41:48;;;;;;;48.80;31.23;;;10.10;99.90;;;;;;4971944;28;20479;-83
2023/09/24 05:44:16;;;;;;;53.70;29.52;;;10.00;99.90;;;;;;4988153;28;20045;-83
2023/09/24 05:46:43;;;;;;;61.63;31.13;;;10.00;99.90;;;;;;4983799;28;20097;-83
2023/09/24 05:49:10;;;;;;;56.63;29.70;;;10.00;99.90;;;;;;4984858;28;20056;-84
2023/09/24 05:51:37;;;;;;;63.78;30.50;;;10.00;99.90;;;;;;4974773;28;20042;-84
2023/09/24 05:54:03;;;;;;;59.92;30.55;;;9.90;99.90;;;;;;4987130;28;20057;-83
2023/09/24 05:56:30;;;;;;;59.83;30.45;;;10.00;99.90;;;;;;4982922;28;20049;-83
2023/09/24 05:58:57;;;;;;;54.70;30.35;;;9.90;99.90;;;;;;4990905;28;20081;-83
2023/09/24 06:01:24;;;;;;;60.58;32.42;;;9.90;99.90;;;;;;4996619;28;20106;-84
2023/09/24 06:03:51;;;;;;;55.35;29.33;;;9.90;99.90;;;;;;4993110;28;20042;-84
2023/09/24 06:06:19;;;;;;;55.00;30.83;;;9.80;99.90;;;;;;4977646;28;20209;-83
2023/09/24 06:08:46;;;;;;;59.85;32.28;;;9.90;99.90;;;;;;4999835;28;20037;-84
2023/09/24 06:11:13;;;;;;;53.97;30.35;;;9.90;99.90;;;;;;4980178;28;20058;-84
2023/09/24 06:13:40;;;;;;;64.85;31.60;;;9.90;99.90;;;;;;4992039;28;20039;-84
2023/09/24 06:16:07;;;;;;;58.67;32.78;;;9.80;99.90;;;;;;5000088;28;20049;-83
2023/09/24 06:18:34;;;;;;;61.20;33.05;;;9.90;99.90;;;;;;4986895;28;20110;-81
2023/09/24 06:21:02;;;;;;;52.90;32.00;;;9.90;99.90;;;;;;4987254;28;20054;-83
2023/09/24 06:23:30;;;;;;;62.80;32.50;;;9.90;99.90;;;;;;4980601;28;20990;-84
2023/09/24 06:25:58;;;;;;;59.28;31.20;;;10.00;99.90;;;;;;4988432;28;20042;-81
2023/09/24 06:28:26;;;;;;;57.38;32.83;;;10.10;99.90;;;;;;4994700;28;20030;-81
2023/09/24 06:31:00;;;;;;;58.80;32.55;;;10.20;99.90;;;;;;4999912;28;20046;-81
2023/09/24 06:33:27;;;;;;;60.87;33.03;;;10.20;99.90;;;;;;4993806;28;20051;-80
2023/09/24 06:35:55;;;;;;;56.15;30.75;;;10.30;99.90;;;;;;4998752;28;20823;-82
2023/09/24 06:38:22;;;;;;;58.75;31.75;;;10.30;99.90;;;;;;4961415;28;20381;-79
2023/09/24 06:41:03;;;;;;;48.00;28.52;;;10.40;99.90;;;;;;4983444;28;20053;-81
2023/09/24 06:43:30;;;;;;;51.50;28.65;;;10.40;99.90;;;;;;4983984;28;20167;-80
2023/09/24 06:45:57;;;;;;;50.65;28.23;;;10.50;99.90;;;;;;4975918;28;20405;-79
2023/09/24 06:48:25;;;;;;;49.70;27.13;;;10.50;99.90;;;;;;4984278;28;20042;-80
2023/09/24 06:50:56;;;;;;;43.30;25.88;;;10.60;99.90;;;;;;4979997;28;20041;-79
2023/09/24 06:53:23;;;;;;;44.60;26.40;;;10.60;99.90;;;;;;4978861;28;20051;-79
2023/09/24 06:55:50;;;;;;;49.65;25.50;;;10.70;99.90;;;;;;4958076;28;20105;-79
2023/09/24 06:58:17;;;;;;;40.50;23.38;;;10.70;99.90;;;;;;4975898;28;20457;-78
2023/09/24 07:00:44;;;;;;;37.03;23.73;;;10.80;99.90;;;;;;4979581;28;20060;-80
2023/09/24 07:03:11;;;;;;;42.40;24.55;;;10.90;99.90;;;;;;4978035;28;20460;-79
2023/09/24 07:05:38;;;;;;;36.80;23.33;;;11.00;99.90;;;;;;4978894;28;20535;-80
2023/09/24 07:08:06;;;;;;;35.00;20.75;;;11.10;99.90;;;;;;4967736;28;20051;-78
2023/09/24 07:10:32;;;;;;;34.53;22.50;;;11.10;99.90;;;;;;4971216;28;20953;-80
2023/09/24 07:12:59;;;;;;;32.88;19.80;;;11.20;99.90;;;;;;4978172;28;20089;-78
2023/09/24 07:15:27;;;;;;;29.13;19.00;;;11.30;99.90;;;;;;4980043;28;20043;-80
2023/09/24 07:17:54;;;;;;;32.65;19.17;;;11.40;99.90;;;;;;4966181;28;20450;-79
2023/09/24 07:20:21;;;;;;;26.77;16.75;;;11.50;99.90;;;;;;4979849;28;20661;-77
2023/09/24 07:22:48;;;;;;;30.17;18.25;;;11.60;99.90;;;;;;4981593;28;20054;-76
2023/09/24 07:25:15;;;;;;;25.02;17.48;;;11.70;99.90;;;;;;4964699;28;20057;-76
2023/09/24 07:27:42;;;;;;;27.25;16.95;;;11.80;99.90;;;;;;4966762;28;20042;-78
2023/09/24 07:30:09;;;;;;;23.15;16.48;;;11.90;99.90;;;;;;4977142;28;20054;-81
2023/09/24 07:32:37;;;;;;;21.08;16.48;;;12.00;99.90;;;;;;4978188;28;20046;-84
2023/09/24 07:35:05;;;;;;;23.55;16.50;;;12.20;99.90;;;;;;4983735;28;20047;-87
2023/09/24 07:37:33;;;;;;;20.25;16.73;;;12.50;99.90;;;;;;4972070;28;20042;-83
2023/09/24 07:40:02;;;;;;;24.42;20.90;;;12.90;99.90;;;;;;4987174;28;20042;-84
2023/09/24 07:42:30;;;;;;;23.15;21.00;;;13.20;99.90;;;;;;4985420;28;20041;-85
2023/09/24 07:45:00;;;;;;;26.55;22.42;;;13.60;99.90;;;;;;4973082;28;20108;-84
2023/09/24 07:47:28;;;;;;;26.40;23.95;;;13.90;99.90;;;;;;4970221;28;20042;-83
2023/09/24 07:49:58;;;;;;;26.15;23.92;;;14.20;99.90;;;;;;4983252;28;20076;-85
2023/09/24 07:52:29;;;;;;;28.00;25.92;;;14.40;99.90;;;;;;4981585;28;20047;-84
2023/09/24 07:54:58;;;;;;;26.98;24.42;;;14.50;99.90;;;;;;4985974;28;20417;-85
2023/09/24 07:57:28;;;;;;;26.33;24.13;;;14.60;99.90;;;;;;4970279;28;20034;-85
2023/09/24 07:59:57;;;;;;;27.13;24.23;;;14.60;99.90;;;;;;4991060;28;20042;-86
2023/09/24 08:02:27;;;;;;;25.73;23.58;;;14.60;99.90;;;;;;4997652;28;20051;-86
2023/09/24 08:04:57;;;;;;;26.02;23.85;;;14.90;99.90;;;;;;4991108;28;20043;-85
2023/09/24 08:07:41;;;;;;;25.17;23.38;;;14.90;99.90;;;;;;4969265;28;20064;-86
2023/09/24 08:10:48;;;;;;;25.10;23.08;;;14.90;99.90;;;;;;4984281;28;20050;-86
2023/09/24 08:17:29;;;;;;;25.10;22.88;;;15.20;99.90;;;;;;4966224;28;20074;-85
2023/09/24 08:36:00;;;;;;;23.00;21.40;;;16.30;99.90;;;;;;4934947;28;20074;-76
2023/09/24 08:38:27;;;;;;;24.30;22.50;;;16.50;99.90;;;;;;4914831;28;20039;-76
2023/09/24 08:40:54;;;;;;;24.60;22.48;;;16.70;99.90;;;;;;4930369;28;20082;-76
2023/09/24 08:43:26;;;;;;;20.95;19.35;;;16.80;99.90;;;;;;4932025;28;20063;-76
2023/09/24 08:45:53;;;;;;;23.42;21.42;;;16.70;99.90;;;;;;4932134;28;20804;-76
2023/09/24 08:48:21;;;;;;;23.60;21.90;;;16.80;99.90;;;;;;4916153;28;20046;-75
2023/09/24 08:50:48;;;;;;;23.30;21.20;;;16.60;99.90;;;;;;4931519;28;20071;-75
2023/09/24 08:53:18;;;;;;;22.83;21.10;;;16.70;99.90;;;;;;4919696;29;20046;-75
2023/09/24 08:55:45;;;;;;;22.88;20.98;;;16.70;99.90;;;;;;4933879;28;20071;-75
2023/09/24 08:58:12;;;;;;;23.05;20.85;;;16.90;99.90;;;;;;4930847;28;20049;-75
2023/09/24 09:00:39;;;;;;;23.30;21.50;;;17.20;99.90;;;;;;4926964;28;20067;-75
2023/09/24 09:03:06;;;;;;;23.77;21.85;;;17.50;99.90;;;;;;4917654;28;20081;-75
2023/09/24 09:05:37;;;;;;;24.33;22.50;;;17.50;99.90;;;;;;4915765;28;20048;-75
2023/09/24 09:08:05;;;;;;;24.50;22.77;;;17.60;99.90;;;;;;4912163;28;20077;-75
2023/09/24 09:10:33;;;;;;;24.63;22.85;;;17.60;99.90;;;;;;4923418;28;20058;-75
2023/09/24 09:13:15;;;;;;;26.48;24.88;;;17.70;99.90;;;;;;4930055;28;20062;-75
2023/09/24 09:15:43;;;;;;;25.58;23.92;;;17.80;99.90;;;;;;4926114;28;20054;-75
2023/09/24 09:18:28;;;;;;;23.83;22.27;;;17.80;99.90;;;;;;4929373;28;21011;-75
2023/09/24 09:21:01;;;;;;;22.57;20.97;;;17.80;99.90;;;;;;4934471;28;20047;-74
2023/09/24 09:23:37;;;;;;;22.77;20.90;;;17.90;99.90;;;;;;4923329;28;20783;-74
2023/09/24 09:26:05;;;;;;;23.25;21.55;;;18.00;99.90;;;;;;4924258;28;20103;-75
2023/09/24 09:28:36;;;;;;;25.50;23.73;;;18.10;99.90;;;;;;4921874;28;20054;-74
2023/09/24 09:31:03;;;;;;;25.13;23.52;;;18.20;99.90;;;;;;4924026;28;20098;-74
2023/09/24 09:33:34;;;;;;;26.60;24.67;;;18.40;99.90;;;;;;4912369;28;20130;-74
2023/09/24 09:36:02;;;;;;;26.45;24.85;;;18.40;99.90;;;;;;4917286;28;20091;-75
2023/09/24 09:38:29;;;;;;;26.77;25.08;;;18.60;99.90;;;;;;4912535;28;20126;-74
2023/09/24 09:40:58;;;;;;;27.50;25.67;;;18.70;99.90;;;;;;4919815;28;20054;-74
2023/09/24 09:43:29;;;;;;;28.38;26.48;;;18.70;99.90;;;;;;4915734;29;20126;-74
2023/09/24 09:45:57;;;;;;;28.15;25.95;;;18.70;99.90;;;;;;4916099;28;20047;-74
2023/09/24 09:48:32;;;;;;;28.48;26.45;;;18.60;99.90;;;;;;4927876;28;20077;-74
2023/09/24 09:51:07;;;;;;;29.25;27.38;;;18.80;99.90;;;;;;4929156;28;20113;-74
2023/09/24 09:53:36;;;;;;;28.48;26.38;;;19.00;99.90;;;;;;4926324;28;20052;-74
2023/09/24 09:56:07;;;;;;;30.00;28.00;;;19.10;99.90;;;;;;4927641;28;20126;-73
2023/09/24 09:58:37;;;;;;;29.60;27.33;;;19.00;99.90;;;;;;4949064;28;20035;-74
2023/09/24 10:01:05;;;;;;;29.90;27.35;;;19.00;99.90;;;;;;4955724;28;20188;-74
2023/09/24 10:03:44;;;;;;;27.75;25.88;;;19.00;99.90;;;;;;4950046;28;20066;-74
2023/09/24 10:06:12;;;;;;;28.20;26.33;;;18.90;99.90;;;;;;4951211;28;20047;-74
2023/09/24 10:08:40;;;;;;;29.10;26.88;;;19.00;99.90;;;;;;4933307;28;20505;-74
2023/09/24 10:11:12;;;;;;;29.90;27.80;;;19.00;99.90;;;;;;4932350;28;20049;-74
2023/09/24 10:13:50;;;;;;;29.50;27.35;;;19.10;99.90;;;;;;4925920;28;20134;-74
2023/09/24 10:16:26;;;;;;;29.40;27.38;;;19.00;99.90;;;;;;4934248;28;20126;-74
2023/09/24 10:18:57;;;;;;;27.65;25.92;;;19.00;99.90;;;;;;4931613;28;20154;-73
2023/09/24 10:21:30;;;;;;;27.38;25.55;;;18.60;99.90;;;;;;4929599;28;20046;-73
2023/09/24 10:24:09;;;;;;;29.55;27.58;;;18.70;99.90;;;;;;4912543;28;20187;-73
2023/09/24 10:27:02;;;;;;;28.27;26.40;;;18.80;99.90;;;;;;4926421;28;20039;-73
2023/09/24 10:29:59;;;;;;;28.23;26.35;;;19.00;99.90;;;;;;4922002;28;20043;-72
2023/09/24 10:32:26;;;;;;;27.63;25.73;;;19.00;99.90;;;;;;4933691;28;20043;-73
2023/09/24 10:34:59;;;;;;;29.23;27.30;;;18.90;99.90;;;;;;4930187;28;20054;-73
2023/09/24 10:37:29;;;;;;;29.00;27.10;;;18.90;99.90;;;;;;4927005;28;20043;-74
2023/09/24 10:40:05;;;;;;;30.30;28.30;;;18.90;99.90;;;;;;4934463;28;20051;-73
2023/09/24 10:42:39;;;;;;;30.40;27.85;;;18.80;99.90;;;;;;4927264;28;20047;-73
2023/09/24 10:45:12;;;;;;;29.40;27.33;;;18.80;99.90;;;;;;4929843;28;20573;-73
2023/09/24 10:47:41;;;;;;;29.52;27.42;;;19.00;99.90;;;;;;4930682;28;20051;-74
2023/09/24 10:50:20;;;;;;;30.02;27.98;;;18.90;99.90;;;;;;4931877;28;20079;-73
2023/09/24 10:52:57;;;;;;;30.35;28.42;;;18.70;99.90;;;;;;4929235;28;20087;-74
2023/09/24 10:55:29;;;;;;;28.65;26.80;;;18.70;99.90;;;;;;4924784;28;20113;-73
2023/09/24 10:58:12;;;;;;;29.05;27.05;;;19.00;99.90;;;;;;4931517;28;20047;-73
2023/09/24 11:00:41;;;;;;;28.90;27.08;;;19.20;99.90;;;;;;4923479;28;20530;-73
2023/09/24 11:03:10;;;;;;;28.77;26.90;;;19.30;99.90;;;;;;4931073;28;20036;-73
2023/09/24 11:05:42;;;;;;;29.20;27.08;;;19.50;99.90;;;;;;4926609;28;20043;-73
2023/09/24 11:08:11;;;;;;;29.60;27.58;;;19.40;99.90;;;;;;4913264;28;20328;-73
2023/09/24 11:10:38;;;;;;;29.60;27.50;;;19.60;99.90;;;;;;4928944;28;20093;-73
2023/09/24 11:13:07;;;;;;;28.95;27.05;;;19.60;99.90;;;;;;4919302;28;20061;-73
2023/09/24 11:15:36;;;;;;;29.25;27.45;;;19.60;99.90;;;;;;4915534;28;20131;-73
2023/09/24 11:18:04;;;;;;;28.60;26.77;;;19.50;99.90;;;;;;4936679;28;20578;-73
2023/09/24 11:20:33;;;;;;;29.33;27.42;;;19.50;99.90;;;;;;4934965;28;20075;-73
2023/09/24 11:23:11;;;;;;;30.00;28.10;;;19.50;99.90;;;;;;4916795;28;20046;-73
2023/09/24 11:25:39;;;;;;;30.73;28.73;;;19.60;99.90;;;;;;4929063;28;20039;-73
2023/09/24 11:28:06;;;;;;;29.52;27.60;;;19.60;99.90;;;;;;4935865;28;20105;-73
2023/09/24 11:30:44;;;;;;;29.60;27.77;;;19.50;99.90;;;;;;4924763;28;20615;-72
2023/09/24 11:33:20;;;;;;;29.08;27.17;;;19.30;99.90;;;;;;4937030;28;20063;-73
2023/09/24 11:35:52;;;;;;;29.70;27.80;;;19.40;99.90;;;;;;4916312;28;20043;-72
2023/09/24 11:38:28;;;;;;;29.48;27.58;;;19.50;99.90;;;;;;4914195;29;20047;-73
2023/09/24 11:41:12;;;;;;;29.70;27.80;;;19.50;99.90;;;;;;4928687;28;20051;-73
2023/09/24 11:43:43;;;;;;;30.25;28.35;;;19.50;99.90;;;;;;4912743;28;20050;-73
2023/09/24 11:46:25;;;;;;;30.73;28.92;;;19.50;99.90;;;;;;4934912;28;20070;-73
2023/09/24 11:48:54;;;;;;;31.55;29.65;;;19.70;99.90;;;;;;4926090;28;20055;-73
2023/09/24 11:51:22;;;;;;;30.92;29.20;;;19.60;99.90;;;;;;4932201;28;20770;-73
2023/09/24 11:53:49;;;;;;;30.55;28.63;;;19.70;99.90;;;;;;4930360;28;20055;-73
2023/09/24 11:56:17;;;;;;;29.90;28.10;;;19.80;99.90;;;;;;4930926;28;20071;-73
2023/09/24 11:58:43;;;;;;;29.85;28.05;;;19.80;99.90;;;;;;4925581;28;20028;-72
2023/09/24 12:01:11;;;;;;;30.13;28.42;;;19.60;99.90;;;;;;4930945;28;20036;-72
2023/09/24 12:03:38;;;;;;;29.40;27.70;;;19.60;99.90;;;;;;4934169;28;20039;-73
2023/09/24 12:06:06;;;;;;;29.10;27.13;;;19.60;99.90;;;;;;4917391;28;20047;-72
2023/09/24 12:08:33;;;;;;;29.40;27.60;;;19.70;99.90;;;;;;4931776;28;20044;-71
2023/09/24 12:11:00;;;;;;;30.38;28.58;;;19.60;99.90;;;;;;4930954;28;20055;-72
2023/09/24 12:13:26;;;;;;;30.65;28.80;;;19.60;99.90;;;;;;4930153;28;20058;-73
2023/09/24 12:15:53;;;;;;;30.58;28.45;;;19.40;99.90;;;;;;4928727;28;20603;-72
2023/09/24 12:18:21;;;;;;;30.98;29.23;;;19.50;99.90;;;;;;4935519;28;20040;-70
2023/09/24 12:20:49;;;;;;;31.02;29.02;;;19.70;99.90;;;;;;4922253;28;20110;-72
2023/09/24 12:23:15;;;;;;;29.23;27.42;;;20.00;99.90;;;;;;4902052;28;20047;-72
2023/09/24 12:25:43;;;;;;;30.83;28.98;;;20.20;99.90;;;;;;4929938;28;20046;-72
2023/09/24 12:28:13;;;;;;;30.65;28.63;;;20.10;99.90;;;;;;4933230;28;20114;-73
2023/09/24 12:30:40;;;;;;;31.02;29.13;;;20.20;99.90;;;;;;4924779;28;20120;-73
2023/09/24 12:33:07;;;;;;;31.27;29.38;;;20.20;99.90;;;;;;4934421;28;20539;-73
2023/09/24 12:35:40;;;;;;;31.42;29.42;;;20.10;99.90;;;;;;4932573;28;20120;-71
2023/09/24 12:38:08;;;;;;;31.90;29.70;;;20.10;99.90;;;;;;4931158;28;20036;-72
2023/09/24 12:40:35;;;;;;;30.48;28.38;;;20.00;99.90;;;;;;4928448;28;20046;-74
2023/09/24 12:43:02;;;;;;;32.22;30.23;;;20.00;99.90;;;;;;4930607;28;20059;-71
2023/09/24 12:45:29;;;;;;;30.95;28.95;;;20.00;99.90;;;;;;4931492;28;20153;-72
2023/09/24 12:47:56;;;;;;;30.40;28.33;;;20.20;99.90;;;;;;4927666;28;20130;-72
2023/09/24 12:50:23;;;;;;;30.30;28.50;;;20.30;99.90;;;;;;4932802;28;20490;-73
2023/09/24 12:52:49;;;;;;;29.17;27.38;;;20.40;99.90;;;;;;4930105;28;20094;-72
2023/09/24 12:55:16;;;;;;;29.88;27.98;;;20.20;99.90;;;;;;4934254;28;20112;-71
2023/09/24 12:57:44;;;;;;;30.60;28.70;;;20.40;99.90;;;;;;4929377;28;20697;-71
2023/09/24 13:00:12;;;;;;;30.65;28.70;;;20.40;99.90;;;;;;4921158;28;20039;-70